Hannibal, MO

7:01 PM CDT on August 20, 2014 (GMT -0500)
Hannibal Area | Change Station
CLOSE
Current Station
Personal Weather Station
Location: Hannibal, MO
Elevation: 603 ft
Nearby Weather Stations

Elev 603 ft 39.71 °N, 91.36 °W | Updated 32 seconds ago

Clear
Clear
86.5 °F
Feels Like 90 °F
N
0.0
Wind Variable Wind from NE
Gusts 0.0 mph

Today
High -- | Low -- °F
--% Chance of Precip.
Yesterday
High -- | Low -- °F
Precip. -- in
6:22 AM 7:54 PM
Waning Crescent, 18% visible
Pressure 29.90 in
Visibility 7.0 miles
Clouds Clear
Heat Index 90 °F
Dew Point 68 °F
Humidity 54%
Rainfall 0.00 in
Snow Depth Not available.
UV 1 out of 12
Pollen 9.60 out of 12
Air Quality Not available.
Flu Activity Not available.
METAR KHAE 202335Z AUTO 15003KT 7SM CLR 31/22 A2990 RMK AO2

More Conditions Fewer Conditions

Pressure 29.90 in
Visibility 7.0 miles
Clouds Clear
Heat Index 90 °F
Dew Point 68 °F
Humidity 54%
Rainfall 0.00 in
Snow Depth Not available.
UV 1 out of 12
Pollen 9.60 out of 12
Air Quality Not available.
Flu Activity Not available.
METAR KHAE 202335Z AUTO 15003KT 7SM CLR 31/22 A2990 RMK AO2

More Conditions Fewer Conditions

10-Day Weather Forecast

Almanac

Astronomy

Aug. 20, 2014 Rise Set
Actual Time 6:22 AM CDT 7:54 PM CDT
Civil Twilight 5:53 AM CDT 8:23 PM CDT
Nautical Twilight 5:19 AM CDT 8:57 PM CDT
Astronomical Twilight 4:43 AM CDT 9:33 PM CDT
Moon 2:02 AM CDT (8/20) 4:39 PM CDT (8/20)
Length of Visible Light 14h 29m
Length of Day
13h 32m
Tomorrow will be 2m 23s shorter.
Waning Crescent, 18% of the Moon is Illuminated
Today
Waning Crescent
Aug 25
New
Sep 2
First Quarter
Sep 8
Full
Sep 15
Last Quarter

Today's Extremes

State Highs State Lows

Community

WunderPhotos

Upload Photos

1,745,807 photos uploaded!

WunderBlogs® & News

Nearby

Snow Depth

Station Depth Elevation
No new snow has been reported.

Earthquake Activity

City Distance Mag. Time & Date
No recent earthquake activity has been reported nearby.
Minimum magnitude displayed is 2.5.

Coastal Water Temperatures

Place Temperature
No Stations Reporting

Nearby Weather Stations